createdAt,value
2023-02-19T00:07:15.109Z,99.42
2023-02-19T00:43:18.038Z,99.64
2023-02-19T00:49:23.497Z,99.77
2023-02-19T01:07:05.040Z,99.83
2023-02-19T01:26:19.711Z,100.00
2023-02-19T01:31:41.769Z,100.00
2023-02-19T01:37:31.875Z,100.00
2023-02-19T01:43:16.960Z,100.00
2023-02-19T02:14:39.347Z,100.00
2023-02-19T02:21:40.967Z,100.00
2023-02-19T02:40:18.281Z,100.00
2023-02-19T02:46:42.966Z,100.00
2023-02-19T03:05:12.473Z,100.00
2023-02-19T03:10:53.252Z,100.00
2023-02-19T03:16:54.620Z,100.00
2023-02-19T03:22:56.215Z,100.00
2023-02-19T03:29:22.780Z,100.00
2023-02-19T03:36:00.991Z,100.00
2023-02-19T03:47:52.143Z,100.00
2023-02-19T03:53:38.912Z,100.00
2023-02-19T03:59:19.943Z,100.00
2023-02-19T04:10:52.246Z,100.00
2023-02-19T04:16:54.912Z,100.00
2023-02-19T04:28:48.608Z,100.00
2023-02-19T05:09:32.679Z,99.79
2023-02-19T05:15:05.142Z,99.91
2023-02-19T05:21:29.156Z,99.88
2023-02-19T06:17:26.517Z,99.67
2023-02-19T06:23:15.754Z,99.53
2023-02-19T06:29:32.280Z,99.67
2023-02-19T07:01:13.299Z,99.68
2023-02-19T07:07:28.353Z,99.76
2023-02-19T07:13:31.330Z,99.75
2023-02-19T07:19:51.737Z,99.54
2023-02-19T07:25:36.420Z,99.69
2023-02-19T07:30:52.060Z,99.67
2023-02-19T07:48:40.698Z,99.61
2023-02-19T08:07:20.605Z,99.97
2023-02-19T08:18:33.291Z,100.00
2023-02-19T08:42:20.263Z,90.69
2023-02-19T08:48:28.278Z,89.95
2023-02-19T08:54:17.369Z,89.14
2023-02-19T09:00:06.741Z,88.04
2023-02-19T09:05:24.044Z,87.06
2023-02-19T09:11:20.964Z,86.97
2023-02-19T09:18:25.986Z,87.66
2023-02-19T09:23:16.225Z,88.30
2023-02-19T09:28:50.693Z,87.89
2023-02-19T09:34:16.948Z,87.77
2023-02-19T09:39:31.147Z,87.43
2023-02-19T09:44:41.130Z,87.35
2023-02-19T09:49:50.255Z,87.55
2023-02-19T09:55:06.393Z,86.85
2023-02-19T10:00:15.678Z,86.33
2023-02-19T10:05:22.678Z,86.24
2023-02-19T10:10:34.486Z,85.57
2023-02-19T10:15:45.572Z,84.66
2023-02-19T10:20:48.450Z,83.80
2023-02-19T10:26:02.391Z,83.26
2023-02-19T10:31:15.434Z,82.68
2023-02-19T10:36:39.388Z,82.62
2023-02-19T10:41:44.126Z,81.78
2023-02-19T10:46:48.577Z,81.81
2023-02-19T10:51:53.642Z,81.45
2023-02-19T10:56:55.173Z,100.00
2023-02-19T11:02:02.422Z,100.00
2023-02-19T11:07:18.417Z,81.45
2023-02-19T11:12:29.104Z,79.15
2023-02-19T11:17:30.780Z,79.40
2023-02-19T11:22:46.770Z,78.11
2023-02-19T11:28:07.419Z,77.16
2023-02-19T11:33:22.324Z,75.67
2023-02-19T11:38:23.877Z,74.52
2023-02-19T11:43:49.921Z,74.64
2023-02-19T11:49:17.534Z,74.51
2023-02-19T11:54:52.168Z,73.88
2023-02-19T12:00:03.765Z,73.20
2023-02-19T12:05:45.620Z,72.76
2023-02-19T12:11:08.189Z,72.39
2023-02-19T12:16:37.398Z,72.10
2023-02-19T12:21:55.715Z,72.03
2023-02-19T12:27:20.593Z,71.32
2023-02-19T12:33:00.005Z,71.32
2023-02-19T12:38:21.382Z,71.60
2023-02-19T12:43:23.873Z,71.06
2023-02-19T12:48:28.080Z,70.17
2023-02-19T12:53:47.229Z,69.03
2023-02-19T12:59:12.956Z,68.44
2023-02-19T13:04:52.972Z,68.39
2023-02-19T13:10:25.157Z,68.28
2023-02-19T13:15:44.206Z,67.84
2023-02-19T13:20:51.927Z,67.75
2023-02-19T13:26:16.883Z,68.03
2023-02-19T13:31:52.709Z,67.59
2023-02-19T13:36:55.645Z,67.09
2023-02-19T13:42:01.550Z,67.10
2023-02-19T13:47:06.036Z,67.35
2023-02-19T13:52:29.483Z,67.14
2023-02-19T13:57:41.639Z,67.54
2023-02-19T14:02:43.384Z,68.36
2023-02-19T14:07:55.390Z,68.93
2023-02-19T14:12:56.887Z,69.65
2023-02-19T14:17:58.491Z,69.69
2023-02-19T14:23:09.160Z,69.63
2023-02-19T14:28:11.408Z,69.77
2023-02-19T14:33:16.892Z,69.92
2023-02-19T14:38:24.989Z,69.97
2023-02-19T14:43:28.618Z,70.31
2023-02-19T14:48:47.481Z,70.37
2023-02-19T14:53:49.626Z,70.46
2023-02-19T14:59:13.470Z,70.36
2023-02-19T15:04:23.559Z,70.73
2023-02-19T15:09:29.414Z,71.08
2023-02-19T15:14:32.558Z,71.20
2023-02-19T15:19:37.374Z,71.70
2023-02-19T15:24:43.994Z,72.15
2023-02-19T15:29:47.777Z,72.46
2023-02-19T15:34:56.683Z,73.08
2023-02-19T15:40:01.333Z,73.44
2023-02-19T15:45:13.532Z,74.08
2023-02-19T15:50:31.574Z,74.41
2023-02-19T15:55:45.474Z,74.89
2023-02-19T16:00:51.520Z,75.25
2023-02-19T16:06:11.425Z,75.30
2023-02-19T16:11:21.881Z,75.30
2023-02-19T16:16:31.083Z,75.30
2023-02-19T16:21:32.935Z,75.55
2023-02-19T16:26:41.661Z,75.53
2023-02-19T16:31:49.431Z,75.57
2023-02-19T16:36:51.016Z,75.70
2023-02-19T16:41:52.644Z,75.90
2023-02-19T16:47:15.140Z,76.06
2023-02-19T16:52:16.910Z,76.34
2023-02-19T16:57:18.985Z,76.52
2023-02-19T17:02:24.007Z,77.03
2023-02-19T17:07:27.413Z,77.11
2023-02-19T17:12:28.979Z,77.85
2023-02-19T17:17:30.594Z,78.27
2023-02-19T17:22:32.084Z,78.39
2023-02-19T17:27:33.699Z,79.08
2023-02-19T17:32:35.360Z,79.32
2023-02-19T17:37:36.936Z,79.81
2023-02-19T17:42:38.460Z,80.24
2023-02-19T17:47:40.027Z,80.64
2023-02-19T17:52:41.951Z,81.04
2023-02-19T17:57:43.956Z,81.41
2023-02-19T18:02:45.448Z,81.68
2023-02-19T18:07:48.364Z,82.15
2023-02-19T18:12:50.201Z,82.51
2023-02-19T18:17:51.703Z,82.56
2023-02-19T18:22:54.437Z,82.88
2023-02-19T18:27:57.118Z,82.98
2023-02-19T18:32:58.697Z,83.24
2023-02-19T18:38:00.157Z,83.48
2023-02-19T18:43:01.982Z,83.79
2023-02-19T18:48:04.867Z,84.15
2023-02-19T18:53:07.224Z,84.28
2023-02-19T18:58:08.733Z,84.54
2023-02-19T19:03:10.336Z,84.84
2023-02-19T19:08:11.858Z,84.97
2023-02-19T19:13:13.377Z,85.15
2023-02-19T19:18:14.836Z,85.29
2023-02-19T19:23:16.349Z,85.51
2023-02-19T19:28:17.810Z,85.48
2023-02-19T19:33:20.297Z,85.59
2023-02-19T19:38:21.876Z,85.62
2023-02-19T19:43:27.068Z,85.82
2023-02-19T19:48:28.622Z,85.97
2023-02-19T19:53:30.253Z,86.02
2023-02-19T19:58:32.519Z,86.45
2023-02-19T20:03:34.151Z,86.38
2023-02-19T20:08:35.834Z,86.48
2023-02-19T20:13:37.312Z,86.54
2023-02-19T20:18:38.788Z,86.52
2023-02-19T20:23:40.891Z,86.67
2023-02-19T20:28:45.103Z,86.84
2023-02-19T20:33:48.258Z,87.04
2023-02-19T20:38:50.014Z,87.11
2023-02-19T20:43:51.583Z,87.06
2023-02-19T20:48:53.082Z,87.03
2023-02-19T20:53:54.524Z,87.14
2023-02-19T20:58:56.024Z,87.40
2023-02-19T21:03:57.482Z,87.61
2023-02-19T21:08:59.038Z,87.61
2023-02-19T21:14:00.715Z,87.94
2023-02-19T21:19:02.568Z,87.59
2023-02-19T21:24:05.979Z,87.70
2023-02-19T21:29:10.953Z,87.69
2023-02-19T21:34:14.499Z,87.79
2023-02-19T21:39:19.425Z,87.69
2023-02-19T21:44:21.607Z,88.21
2023-02-19T21:49:23.494Z,88.06
2023-02-19T21:54:25.330Z,88.14
2023-02-19T21:59:26.801Z,88.20
2023-02-19T22:04:28.269Z,88.30
2023-02-19T22:09:29.758Z,88.50
2023-02-19T22:14:31.216Z,88.67
2023-02-19T22:19:32.679Z,88.80
2023-02-19T22:24:34.226Z,88.74
2023-02-19T22:29:35.796Z,88.94
2023-02-19T22:34:41.756Z,88.89
2023-02-19T22:39:44.365Z,89.04
2023-02-19T22:44:45.823Z,89.33
2023-02-19T22:49:47.316Z,89.35
2023-02-19T22:54:49.621Z,89.17
2023-02-19T22:59:51.175Z,89.29
2023-02-19T23:04:52.645Z,89.17
2023-02-19T23:09:54.200Z,89.30
2023-02-19T23:14:55.642Z,89.11
2023-02-19T23:19:57.107Z,89.09
2023-02-19T23:24:58.569Z,88.74
2023-02-19T23:30:00.213Z,88.69
2023-02-19T23:35:01.930Z,88.66
2023-02-19T23:40:03.813Z,88.57
2023-02-19T23:45:05.507Z,88.49
2023-02-19T23:50:07.463Z,88.28
2023-02-19T23:55:09.060Z,88.21
